sensor_id;sensor_type;location;lat;lon;timestamp;temperature;humidity
4215;DHT22;2121;48.062;7.850;2023-09-19T00:00:30;16.30;99.90
4215;DHT22;2121;48.062;7.850;2023-09-19T00:02:58;16.20;99.90
4215;DHT22;2121;48.062;7.850;2023-09-19T00:05:33;16.30;99.90
4215;DHT22;2121;48.062;7.850;2023-09-19T00:08:01;16.40;99.90
4215;DHT22;2121;48.062;7.850;2023-09-19T00:10:30;16.30;99.90
4215;DHT22;2121;48.062;7.850;2023-09-19T00:12:58;16.30;99.90
4215;DHT22;2121;48.062;7.850;2023-09-19T00:15:36;16.30;99.90
4215;DHT22;2121;48.062;7.850;2023-09-19T00:18:04;16.30;99.90
4215;DHT22;2121;48.062;7.850;2023-09-19T00:20:37;16.20;99.90
4215;DHT22;2121;48.062;7.850;2023-09-19T00:23:07;16.20;99.90
4215;DHT22;2121;48.062;7.850;2023-09-19T00:25:36;16.20;99.90
4215;DHT22;2121;48.062;7.850;2023-09-19T00:28:05;16.20;99.90
4215;DHT22;2121;48.062;7.850;2023-09-19T00:30:35;16.20;99.90
4215;DHT22;2121;48.062;7.850;2023-09-19T00:33:01;16.20;99.90
4215;DHT22;2121;48.062;7.850;2023-09-19T00:35:31;16.20;99.90
4215;DHT22;2121;48.062;7.850;2023-09-19T00:37:57;16.20;99.90
4215;DHT22;2121;48.062;7.850;2023-09-19T00:40:22;16.20;99.90
4215;DHT22;2121;48.062;7.850;2023-09-19T00:42:49;16.20;99.90
4215;DHT22;2121;48.062;7.850;2023-09-19T00:45:16;16.20;99.90
4215;DHT22;2121;48.062;7.850;2023-09-19T00:47:50;16.10;99.90
4215;DHT22;2121;48.062;7.850;2023-09-19T00:50:19;16.10;99.90
4215;DHT22;2121;48.062;7.850;2023-09-19T00:52:48;16.10;99.90
4215;DHT22;2121;48.062;7.850;2023-09-19T00:55:16;16.10;99.90
4215;DHT22;2121;48.062;7.850;2023-09-19T00:57:45;16.10;99.90
4215;DHT22;2121;48.062;7.850;2023-09-19T01:00:11;16.10;99.90
4215;DHT22;2121;48.062;7.850;2023-09-19T01:02:42;16.00;99.90
4215;DHT22;2121;48.062;7.850;2023-09-19T01:05:12;16.10;99.90
4215;DHT22;2121;48.062;7.850;2023-09-19T01:07:38;16.10;99.90
4215;DHT22;2121;48.062;7.850;2023-09-19T01:10:12;16.10;99.90
4215;DHT22;2121;48.062;7.850;2023-09-19T01:18:52;16.10;99.90
4215;DHT22;2121;48.062;7.850;2023-09-19T01:22:12;16.10;99.90
4215;DHT22;2121;48.062;7.850;2023-09-19T01:31:02;16.30;99.90
4215;DHT22;2121;48.062;7.850;2023-09-19T01:33:53;16.40;99.90
4215;DHT22;2121;48.062;7.850;2023-09-19T01:36:35;16.40;99.90
4215;DHT22;2121;48.062;7.850;2023-09-19T01:39:06;16.40;99.90
4215;DHT22;2121;48.062;7.850;2023-09-19T01:47:51;16.50;99.90
4215;DHT22;2121;48.062;7.850;2023-09-19T01:50:32;16.50;99.90
4215;DHT22;2121;48.062;7.850;2023-09-19T01:55:54;16.60;99.90
4215;DHT22;2121;48.062;7.850;2023-09-19T01:58:27;16.60;99.90
4215;DHT22;2121;48.062;7.850;2023-09-19T02:01:00;16.70;99.90
4215;DHT22;2121;48.062;7.850;2023-09-19T02:03:27;16.70;99.90
4215;DHT22;2121;48.062;7.850;2023-09-19T02:05:54;16.70;99.90
4215;DHT22;2121;48.062;7.850;2023-09-19T02:08:21;16.70;99.90
4215;DHT22;2121;48.062;7.850;2023-09-19T02:10:51;16.70;99.90
4215;DHT22;2121;48.062;7.850;2023-09-19T02:13:19;16.70;99.90
4215;DHT22;2121;48.062;7.850;2023-09-19T02:15:46;16.70;99.90
4215;DHT22;2121;48.062;7.850;2023-09-19T02:18:12;16.70;99.90
4215;DHT22;2121;48.062;7.850;2023-09-19T02:20:39;16.80;99.90
4215;DHT22;2121;48.062;7.850;2023-09-19T02:23:06;16.60;99.90
4215;DHT22;2121;48.062;7.850;2023-09-19T02:25:33;16.30;99.90
4215;DHT22;2121;48.062;7.850;2023-09-19T02:28:00;16.20;99.90
4215;DHT22;2121;48.062;7.850;2023-09-19T02:30:28;16.00;99.90
4215;DHT22;2121;48.062;7.850;2023-09-19T02:32:54;16.00;99.90
4215;DHT22;2121;48.062;7.850;2023-09-19T02:35:20;15.90;99.90
4215;DHT22;2121;48.062;7.850;2023-09-19T02:37:47;15.80;99.90
4215;DHT22;2121;48.062;7.850;2023-09-19T02:40:13;15.80;99.90
4215;DHT22;2121;48.062;7.850;2023-09-19T02:42:53;15.80;99.90
4215;DHT22;2121;48.062;7.850;2023-09-19T02:45:20;15.80;99.90
4215;DHT22;2121;48.062;7.850;2023-09-19T02:47:47;15.80;99.90
4215;DHT22;2121;48.062;7.850;2023-09-19T02:50:14;15.80;99.90
4215;DHT22;2121;48.062;7.850;2023-09-19T02:52:43;15.90;99.90
4215;DHT22;2121;48.062;7.850;2023-09-19T02:55:11;15.90;99.90
4215;DHT22;2121;48.062;7.850;2023-09-19T02:57:40;15.90;99.90
4215;DHT22;2121;48.062;7.850;2023-09-19T03:00:09;15.90;99.90
4215;DHT22;2121;48.062;7.850;2023-09-19T03:02:38;15.90;99.90
4215;DHT22;2121;48.062;7.850;2023-09-19T03:05:06;15.90;99.90
4215;DHT22;2121;48.062;7.850;2023-09-19T03:07:32;15.80;99.90
4215;DHT22;2121;48.062;7.850;2023-09-19T03:09:59;15.80;99.90
4215;DHT22;2121;48.062;7.850;2023-09-19T03:12:26;15.90;99.90
4215;DHT22;2121;48.062;7.850;2023-09-19T03:14:52;15.90;99.90
4215;DHT22;2121;48.062;7.850;2023-09-19T03:17:18;15.90;99.90
4215;DHT22;2121;48.062;7.850;2023-09-19T03:19:45;15.90;99.90
4215;DHT22;2121;48.062;7.850;2023-09-19T03:22:12;16.00;99.90
4215;DHT22;2121;48.062;7.850;2023-09-19T03:24:39;15.90;99.90
4215;DHT22;2121;48.062;7.850;2023-09-19T03:27:05;16.00;99.90
4215;DHT22;2121;48.062;7.850;2023-09-19T03:29:31;16.10;99.90
4215;DHT22;2121;48.062;7.850;2023-09-19T03:31:57;16.10;99.90
4215;DHT22;2121;48.062;7.850;2023-09-19T03:34:22;16.10;99.90
4215;DHT22;2121;48.062;7.850;2023-09-19T03:36:48;16.20;99.90
4215;DHT22;2121;48.062;7.850;2023-09-19T03:39:14;16.20;99.90
4215;DHT22;2121;48.062;7.850;2023-09-19T03:41:42;16.30;99.90
4215;DHT22;2121;48.062;7.850;2023-09-19T03:44:08;16.30;99.90
4215;DHT22;2121;48.062;7.850;2023-09-19T03:46:34;16.30;99.90
4215;DHT22;2121;48.062;7.850;2023-09-19T03:49:01;16.30;99.90
4215;DHT22;2121;48.062;7.850;2023-09-19T03:51:28;16.30;99.90
4215;DHT22;2121;48.062;7.850;2023-09-19T03:53:53;16.30;99.90
4215;DHT22;2121;48.062;7.850;2023-09-19T03:56:19;16.30;99.90
4215;DHT22;2121;48.062;7.850;2023-09-19T03:58:45;16.30;99.90
4215;DHT22;2121;48.062;7.850;2023-09-19T04:01:10;16.30;99.90
4215;DHT22;2121;48.062;7.850;2023-09-19T04:03:38;16.30;99.90
4215;DHT22;2121;48.062;7.850;2023-09-19T04:06:16;16.30;99.90
4215;DHT22;2121;48.062;7.850;2023-09-19T04:08:43;16.40;99.90
4215;DHT22;2121;48.062;7.850;2023-09-19T04:11:10;16.40;99.90
4215;DHT22;2121;48.062;7.850;2023-09-19T04:13:36;16.40;99.90
4215;DHT22;2121;48.062;7.850;2023-09-19T04:16:03;16.50;99.90
4215;DHT22;2121;48.062;7.850;2023-09-19T04:18:29;16.50;99.90
4215;DHT22;2121;48.062;7.850;2023-09-19T04:20:58;16.50;99.90
4215;DHT22;2121;48.062;7.850;2023-09-19T04:23:27;16.50;99.90
4215;DHT22;2121;48.062;7.850;2023-09-19T04:25:53;16.60;99.90
4215;DHT22;2121;48.062;7.850;2023-09-19T04:28:19;16.60;99.90
4215;DHT22;2121;48.062;7.850;2023-09-19T04:30:45;16.60;99.90
4215;DHT22;2121;48.062;7.850;2023-09-19T04:33:11;16.60;99.90
4215;DHT22;2121;48.062;7.850;2023-09-19T04:35:40;16.70;99.90
4215;DHT22;2121;48.062;7.850;2023-09-19T04:38:08;16.70;99.90
4215;DHT22;2121;48.062;7.850;2023-09-19T04:40:34;16.80;99.90
4215;DHT22;2121;48.062;7.850;2023-09-19T04:43:00;16.70;99.90
4215;DHT22;2121;48.062;7.850;2023-09-19T04:45:27;16.60;99.90
4215;DHT22;2121;48.062;7.850;2023-09-19T04:47:54;16.40;99.90
4215;DHT22;2121;48.062;7.850;2023-09-19T04:50:20;16.20;99.90
4215;DHT22;2121;48.062;7.850;2023-09-19T04:52:53;16.20;99.90
4215;DHT22;2121;48.062;7.850;2023-09-19T04:55:19;16.10;99.90
4215;DHT22;2121;48.062;7.850;2023-09-19T04:57:51;16.00;99.90
4215;DHT22;2121;48.062;7.850;2023-09-19T05:00:22;15.90;99.90
4215;DHT22;2121;48.062;7.850;2023-09-19T05:02:56;15.80;99.90
4215;DHT22;2121;48.062;7.850;2023-09-19T05:05:23;15.80;99.90
4215;DHT22;2121;48.062;7.850;2023-09-19T05:07:50;15.70;99.90
4215;DHT22;2121;48.062;7.850;2023-09-19T05:10:17;15.70;99.90
4215;DHT22;2121;48.062;7.850;2023-09-19T05:12:46;15.60;99.90
4215;DHT22;2121;48.062;7.850;2023-09-19T05:15:13;15.70;99.90
4215;DHT22;2121;48.062;7.850;2023-09-19T05:17:40;15.70;99.90
4215;DHT22;2121;48.062;7.850;2023-09-19T05:20:06;15.70;99.90
4215;DHT22;2121;48.062;7.850;2023-09-19T05:22:42;15.70;99.90
4215;DHT22;2121;48.062;7.850;2023-09-19T05:25:09;15.70;99.90
4215;DHT22;2121;48.062;7.850;2023-09-19T05:27:35;15.80;99.90
4215;DHT22;2121;48.062;7.850;2023-09-19T05:30:01;15.80;99.90
4215;DHT22;2121;48.062;7.850;2023-09-19T05:32:27;15.90;99.90
4215;DHT22;2121;48.062;7.850;2023-09-19T05:34:53;15.90;99.90
4215;DHT22;2121;48.062;7.850;2023-09-19T05:37:21;15.90;99.90
4215;DHT22;2121;48.062;7.850;2023-09-19T05:39:49;16.00;99.90
4215;DHT22;2121;48.062;7.850;2023-09-19T05:42:14;16.00;99.90
4215;DHT22;2121;48.062;7.850;2023-09-19T05:44:40;16.00;99.90
4215;DHT22;2121;48.062;7.850;2023-09-19T05:47:06;16.10;99.90
4215;DHT22;2121;48.062;7.850;2023-09-19T05:49:35;16.10;99.90
4215;DHT22;2121;48.062;7.850;2023-09-19T05:52:07;16.10;99.90
4215;DHT22;2121;48.062;7.850;2023-09-19T05:54:33;16.20;99.90
4215;DHT22;2121;48.062;7.850;2023-09-19T05:57:03;16.20;99.90
4215;DHT22;2121;48.062;7.850;2023-09-19T05:59:29;16.40;99.90
4215;DHT22;2121;48.062;7.850;2023-09-19T06:01:55;16.40;99.90
4215;DHT22;2121;48.062;7.850;2023-09-19T06:04:21;16.50;99.90
4215;DHT22;2121;48.062;7.850;2023-09-19T06:06:47;16.60;99.90
4215;DHT22;2121;48.062;7.850;2023-09-19T06:09:14;16.60;99.90
4215;DHT22;2121;48.062;7.850;2023-09-19T06:11:42;16.60;99.90
4215;DHT22;2121;48.062;7.850;2023-09-19T06:14:08;16.70;99.90
4215;DHT22;2121;48.062;7.850;2023-09-19T06:16:35;16.70;99.90
4215;DHT22;2121;48.062;7.850;2023-09-19T06:19:02;16.80;99.90
4215;DHT22;2121;48.062;7.850;2023-09-19T06:21:28;16.80;99.90
4215;DHT22;2121;48.062;7.850;2023-09-19T06:23:54;16.80;99.90
4215;DHT22;2121;48.062;7.850;2023-09-19T06:26:19;16.90;99.90
4215;DHT22;2121;48.062;7.850;2023-09-19T06:28:45;17.00;99.90
4215;DHT22;2121;48.062;7.850;2023-09-19T06:31:11;17.00;99.90
4215;DHT22;2121;48.062;7.850;2023-09-19T06:33:37;17.00;99.90
4215;DHT22;2121;48.062;7.850;2023-09-19T06:36:05;17.10;99.90
4215;DHT22;2121;48.062;7.850;2023-09-19T06:38:32;17.20;99.90
4215;DHT22;2121;48.062;7.850;2023-09-19T06:41:00;17.20;99.90
4215;DHT22;2121;48.062;7.850;2023-09-19T06:43:26;17.10;99.90
4215;DHT22;2121;48.062;7.850;2023-09-19T06:45:54;17.20;99.90
4215;DHT22;2121;48.062;7.850;2023-09-19T06:48:20;17.10;99.90
4215;DHT22;2121;48.062;7.850;2023-09-19T06:50:46;17.20;99.90
4215;DHT22;2121;48.062;7.850;2023-09-19T06:53:13;17.20;99.90
4215;DHT22;2121;48.062;7.850;2023-09-19T06:55:39;17.30;99.90
4215;DHT22;2121;48.062;7.850;2023-09-19T06:58:05;17.40;99.90
4215;DHT22;2121;48.062;7.850;2023-09-19T07:00:31;17.30;99.90
4215;DHT22;2121;48.062;7.850;2023-09-19T07:03:06;17.30;99.90
4215;DHT22;2121;48.062;7.850;2023-09-19T07:05:39;17.30;99.90
4215;DHT22;2121;48.062;7.850;2023-09-19T07:08:06;17.40;99.90
4215;DHT22;2121;48.062;7.850;2023-09-19T07:10:34;17.40;99.90
4215;DHT22;2121;48.062;7.850;2023-09-19T07:13:04;17.50;99.90
4215;DHT22;2121;48.062;7.850;2023-09-19T07:15:36;17.40;99.90
4215;DHT22;2121;48.062;7.850;2023-09-19T07:18:12;17.30;99.90
4215;DHT22;2121;48.062;7.850;2023-09-19T07:20:40;17.20;99.90
4215;DHT22;2121;48.062;7.850;2023-09-19T07:23:14;17.30;99.90
4215;DHT22;2121;48.062;7.850;2023-09-19T07:25:44;17.20;99.90
4215;DHT22;2121;48.062;7.850;2023-09-19T07:28:11;17.30;99.90
4215;DHT22;2121;48.062;7.850;2023-09-19T07:30:38;17.40;99.90
4215;DHT22;2121;48.062;7.850;2023-09-19T07:33:05;17.70;99.90
4215;DHT22;2121;48.062;7.850;2023-09-19T07:35:31;17.70;99.90
4215;DHT22;2121;48.062;7.850;2023-09-19T07:37:57;17.80;99.90
4215;DHT22;2121;48.062;7.850;2023-09-19T07:40:27;18.00;99.90
4215;DHT22;2121;48.062;7.850;2023-09-19T07:42:55;18.10;99.90
4215;DHT22;2121;48.062;7.850;2023-09-19T07:45:21;18.20;99.90
4215;DHT22;2121;48.062;7.850;2023-09-19T07:47:47;18.30;99.90
4215;DHT22;2121;48.062;7.850;2023-09-19T07:50:15;18.60;99.90
4215;DHT22;2121;48.062;7.850;2023-09-19T07:52:42;18.70;99.90
4215;DHT22;2121;48.062;7.850;2023-09-19T07:55:08;18.70;99.90
4215;DHT22;2121;48.062;7.850;2023-09-19T07:57:35;18.80;99.90
4215;DHT22;2121;48.062;7.850;2023-09-19T08:00:01;18.80;99.90
4215;DHT22;2121;48.062;7.850;2023-09-19T08:02:33;18.80;99.90
4215;DHT22;2121;48.062;7.850;2023-09-19T08:05:00;19.00;99.90
4215;DHT22;2121;48.062;7.850;2023-09-19T08:07:26;19.20;99.90
4215;DHT22;2121;48.062;7.850;2023-09-19T08:09:51;19.20;99.90
4215;DHT22;2121;48.062;7.850;2023-09-19T08:12:17;19.20;99.90
4215;DHT22;2121;48.062;7.850;2023-09-19T08:14:45;19.30;99.90
4215;DHT22;2121;48.062;7.850;2023-09-19T08:17:12;19.40;99.90
4215;DHT22;2121;48.062;7.850;2023-09-19T08:19:38;19.50;99.90
4215;DHT22;2121;48.062;7.850;2023-09-19T08:22:07;19.50;99.90
4215;DHT22;2121;48.062;7.850;2023-09-19T08:24:36;19.60;99.90
4215;DHT22;2121;48.062;7.850;2023-09-19T08:27:03;19.60;99.90
4215;DHT22;2121;48.062;7.850;2023-09-19T08:29:30;19.70;99.90
4215;DHT22;2121;48.062;7.850;2023-09-19T08:31:57;19.70;99.90
4215;DHT22;2121;48.062;7.850;2023-09-19T08:34:24;19.80;99.90
4215;DHT22;2121;48.062;7.850;2023-09-19T08:36:54;19.80;99.90
4215;DHT22;2121;48.062;7.850;2023-09-19T08:39:26;19.90;99.90
4215;DHT22;2121;48.062;7.850;2023-09-19T08:41:58;19.80;99.90
4215;DHT22;2121;48.062;7.850;2023-09-19T08:44:25;19.70;99.90
4215;DHT22;2121;48.062;7.850;2023-09-19T08:47:09;19.70;99.90
4215;DHT22;2121;48.062;7.850;2023-09-19T08:52:32;19.90;99.90
4215;DHT22;2121;48.062;7.850;2023-09-19T08:55:02;20.00;99.90
4215;DHT22;2121;48.062;7.850;2023-09-19T08:57:36;20.20;99.90
4215;DHT22;2121;48.062;7.850;2023-09-19T09:00:08;20.30;99.90
4215;DHT22;2121;48.062;7.850;2023-09-19T09:02:41;20.40;99.90
4215;DHT22;2121;48.062;7.850;2023-09-19T09:05:09;20.50;99.90
4215;DHT22;2121;48.062;7.850;2023-09-19T09:07:40;20.50;99.90
4215;DHT22;2121;48.062;7.850;2023-09-19T09:10:07;20.60;99.90
4215;DHT22;2121;48.062;7.850;2023-09-19T09:12:34;20.90;99.90
4215;DHT22;2121;48.062;7.850;2023-09-19T09:15:02;21.00;99.90
4215;DHT22;2121;48.062;7.850;2023-09-19T09:17:29;21.20;99.90
4215;DHT22;2121;48.062;7.850;2023-09-19T09:19:55;21.40;99.90
4215;DHT22;2121;48.062;7.850;2023-09-19T09:22:22;21.40;99.90
4215;DHT22;2121;48.062;7.850;2023-09-19T09:24:59;21.40;99.90
4215;DHT22;2121;48.062;7.850;2023-09-19T09:27:27;21.80;99.90
4215;DHT22;2121;48.062;7.850;2023-09-19T09:29:53;21.60;99.90
4215;DHT22;2121;48.062;7.850;2023-09-19T09:32:25;21.50;99.90
4215;DHT22;2121;48.062;7.850;2023-09-19T09:34:56;21.60;99.90
4215;DHT22;2121;48.062;7.850;2023-09-19T09:37:23;22.00;99.90
4215;DHT22;2121;48.062;7.850;2023-09-19T09:39:55;22.20;99.90
4215;DHT22;2121;48.062;7.850;2023-09-19T09:42:36;22.00;99.90
4215;DHT22;2121;48.062;7.850;2023-09-19T09:45:24;21.50;99.90
4215;DHT22;2121;48.062;7.850;2023-09-19T09:48:00;20.90;99.90
4215;DHT22;2121;48.062;7.850;2023-09-19T09:50:36;20.80;99.90
4215;DHT22;2121;48.062;7.850;2023-09-19T09:53:22;21.20;99.90
4215;DHT22;2121;48.062;7.850;2023-09-19T09:56:03;21.30;99.90
4215;DHT22;2121;48.062;7.850;2023-09-19T09:58:49;21.40;99.90
4215;DHT22;2121;48.062;7.850;2023-09-19T10:01:17;21.40;99.90
4215;DHT22;2121;48.062;7.850;2023-09-19T10:03:43;21.70;99.90
4215;DHT22;2121;48.062;7.850;2023-09-19T10:06:14;21.90;99.90
4215;DHT22;2121;48.062;7.850;2023-09-19T10:09:06;22.20;99.90
4215;DHT22;2121;48.062;7.850;2023-09-19T10:11:42;22.60;99.90
4215;DHT22;2121;48.062;7.850;2023-09-19T10:14:13;22.40;99.90
4215;DHT22;2121;48.062;7.850;2023-09-19T10:16:45;22.60;99.90
4215;DHT22;2121;48.062;7.850;2023-09-19T10:19:23;22.60;99.90
4215;DHT22;2121;48.062;7.850;2023-09-19T10:21:54;22.80;99.90
4215;DHT22;2121;48.062;7.850;2023-09-19T10:24:22;23.00;99.90
4215;DHT22;2121;48.062;7.850;2023-09-19T10:26:50;22.90;99.90
4215;DHT22;2121;48.062;7.850;2023-09-19T10:29:17;22.90;99.90
4215;DHT22;2121;48.062;7.850;2023-09-19T10:31:47;22.90;99.90
4215;DHT22;2121;48.062;7.850;2023-09-19T10:34:17;23.10;99.90
4215;DHT22;2121;48.062;7.850;2023-09-19T10:36:46;23.40;99.90
4215;DHT22;2121;48.062;7.850;2023-09-19T10:39:16;23.40;99.90
4215;DHT22;2121;48.062;7.850;2023-09-19T10:41:56;23.20;99.90
4215;DHT22;2121;48.062;7.850;2023-09-19T10:44:25;23.00;99.90
4215;DHT22;2121;48.062;7.850;2023-09-19T10:46:52;23.30;99.90
4215;DHT22;2121;48.062;7.850;2023-09-19T10:49:20;23.70;99.90
4215;DHT22;2121;48.062;7.850;2023-09-19T10:51:48;24.00;99.90
4215;DHT22;2121;48.062;7.850;2023-09-19T10:54:18;23.70;99.90
4215;DHT22;2121;48.062;7.850;2023-09-19T10:56:49;23.40;99.90
4215;DHT22;2121;48.062;7.850;2023-09-19T10:59:18;23.20;99.90
4215;DHT22;2121;48.062;7.850;2023-09-19T11:01:51;23.10;99.90
4215;DHT22;2121;48.062;7.850;2023-09-19T11:04:30;23.30;99.90
4215;DHT22;2121;48.062;7.850;2023-09-19T11:09:53;23.50;99.80
4215;DHT22;2121;48.062;7.850;2023-09-19T11:15:07;24.00;99.90
4215;DHT22;2121;48.062;7.850;2023-09-19T11:17:35;24.50;99.30
4215;DHT22;2121;48.062;7.850;2023-09-19T11:30:49;24.30;97.80
4215;DHT22;2121;48.062;7.850;2023-09-19T11:33:20;24.40;98.20
4215;DHT22;2121;48.062;7.850;2023-09-19T11:46:24;24.10;95.40
4215;DHT22;2121;48.062;7.850;2023-09-19T11:48:54;23.70;95.70
4215;DHT22;2121;48.062;7.850;2023-09-19T11:51:21;23.70;95.80
4215;DHT22;2121;48.062;7.850;2023-09-19T11:53:58;23.70;96.00
4215;DHT22;2121;48.062;7.850;2023-09-19T11:56:26;23.90;95.90
4215;DHT22;2121;48.062;7.850;2023-09-19T11:58:57;24.30;95.50
4215;DHT22;2121;48.062;7.850;2023-09-19T12:01:32;25.20;95.60
4215;DHT22;2121;48.062;7.850;2023-09-19T12:04:01;26.30;93.80
4215;DHT22;2121;48.062;7.850;2023-09-19T12:06:30;26.50;93.70
4215;DHT22;2121;48.062;7.850;2023-09-19T12:08:57;26.00;93.80
4215;DHT22;2121;48.062;7.850;2023-09-19T12:11:31;25.40;92.80
4215;DHT22;2121;48.062;7.850;2023-09-19T12:14:02;25.00;93.50
4215;DHT22;2121;48.062;7.850;2023-09-19T12:16:28;25.20;92.90
4215;DHT22;2121;48.062;7.850;2023-09-19T12:18:57;25.30;93.40
4215;DHT22;2121;48.062;7.850;2023-09-19T12:21:31;25.70;93.40
4215;DHT22;2121;48.062;7.850;2023-09-19T12:24:06;26.10;93.60
4215;DHT22;2121;48.062;7.850;2023-09-19T12:26:43;26.10;91.10
4215;DHT22;2121;48.062;7.850;2023-09-19T12:29:15;26.00;92.00
4215;DHT22;2121;48.062;7.850;2023-09-19T12:31:55;25.90;91.80
4215;DHT22;2121;48.062;7.850;2023-09-19T12:34:30;25.90;91.80
4215;DHT22;2121;48.062;7.850;2023-09-19T12:39:39;26.00;92.20
4215;DHT22;2121;48.062;7.850;2023-09-19T12:42:10;25.90;90.60
4215;DHT22;2121;48.062;7.850;2023-09-19T12:44:41;25.60;91.20
4215;DHT22;2121;48.062;7.850;2023-09-19T12:47:18;25.40;88.30
4215;DHT22;2121;48.062;7.850;2023-09-19T12:50:08;25.40;89.80
4215;DHT22;2121;48.062;7.850;2023-09-19T12:52:56;25.50;91.40
4215;DHT22;2121;48.062;7.850;2023-09-19T12:55:26;25.50;91.20
4215;DHT22;2121;48.062;7.850;2023-09-19T12:58:09;25.30;91.60
4215;DHT22;2121;48.062;7.850;2023-09-19T13:00:44;25.40;91.10
4215;DHT22;2121;48.062;7.850;2023-09-19T13:05:57;25.60;91.20
4215;DHT22;2121;48.062;7.850;2023-09-19T13:08:32;25.30;91.00
4215;DHT22;2121;48.062;7.850;2023-09-19T13:11:19;25.30;90.10
4215;DHT22;2121;48.062;7.850;2023-09-19T13:13:49;25.50;89.50
4215;DHT22;2121;48.062;7.850;2023-09-19T13:16:21;25.70;90.60
4215;DHT22;2121;48.062;7.850;2023-09-19T13:18:55;25.60;87.60
4215;DHT22;2121;48.062;7.850;2023-09-19T13:21:34;25.40;89.10
4215;DHT22;2121;48.062;7.850;2023-09-19T13:24:22;25.10;88.00
4215;DHT22;2121;48.062;7.850;2023-09-19T13:26:56;25.20;89.50
4215;DHT22;2121;48.062;7.850;2023-09-19T13:29:22;25.50;90.40
4215;DHT22;2121;48.062;7.850;2023-09-19T13:31:49;25.50;86.60
4215;DHT22;2121;48.062;7.850;2023-09-19T13:34:16;25.40;86.00
4215;DHT22;2121;48.062;7.850;2023-09-19T13:36:43;25.40;88.80
4215;DHT22;2121;48.062;7.850;2023-09-19T13:39:09;25.60;87.80
4215;DHT22;2121;48.062;7.850;2023-09-19T13:41:38;25.50;88.90
4215;DHT22;2121;48.062;7.850;2023-09-19T13:44:04;25.60;90.30
4215;DHT22;2121;48.062;7.850;2023-09-19T13:46:30;25.70;90.70
4215;DHT22;2121;48.062;7.850;2023-09-19T13:49:00;25.80;90.30
4215;DHT22;2121;48.062;7.850;2023-09-19T13:51:30;25.70;86.30
4215;DHT22;2121;48.062;7.850;2023-09-19T13:53:56;25.70;85.10
4215;DHT22;2121;48.062;7.850;2023-09-19T13:56:22;25.70;84.50
4215;DHT22;2121;48.062;7.850;2023-09-19T13:58:48;25.50;84.50
4215;DHT22;2121;48.062;7.850;2023-09-19T14:01:13;25.50;82.50
4215;DHT22;2121;48.062;7.850;2023-09-19T14:03:40;25.30;84.70
4215;DHT22;2121;48.062;7.850;2023-09-19T14:06:06;25.30;84.80
4215;DHT22;2121;48.062;7.850;2023-09-19T14:08:32;25.30;85.50
4215;DHT22;2121;48.062;7.850;2023-09-19T14:11:06;25.60;85.90
4215;DHT22;2121;48.062;7.850;2023-09-19T14:13:32;25.50;85.20
4215;DHT22;2121;48.062;7.850;2023-09-19T14:16:02;25.50;88.10
4215;DHT22;2121;48.062;7.850;2023-09-19T14:18:30;25.40;88.20
4215;DHT22;2121;48.062;7.850;2023-09-19T14:20:57;25.60;85.50
4215;DHT22;2121;48.062;7.850;2023-09-19T14:23:22;25.50;83.50
4215;DHT22;2121;48.062;7.850;2023-09-19T14:25:50;25.40;83.70
4215;DHT22;2121;48.062;7.850;2023-09-19T14:28:17;25.30;82.30
4215;DHT22;2121;48.062;7.850;2023-09-19T14:30:43;25.30;83.00
4215;DHT22;2121;48.062;7.850;2023-09-19T14:33:09;25.30;83.00
4215;DHT22;2121;48.062;7.850;2023-09-19T14:35:37;25.30;85.40
4215;DHT22;2121;48.062;7.850;2023-09-19T14:38:03;25.70;86.20
4215;DHT22;2121;48.062;7.850;2023-09-19T14:40:29;25.60;85.30
4215;DHT22;2121;48.062;7.850;2023-09-19T14:42:56;25.60;85.30
4215;DHT22;2121;48.062;7.850;2023-09-19T14:45:22;25.60;85.60
4215;DHT22;2121;48.062;7.850;2023-09-19T14:47:48;25.70;84.50
4215;DHT22;2121;48.062;7.850;2023-09-19T14:50:17;25.80;86.30
4215;DHT22;2121;48.062;7.850;2023-09-19T14:52:42;25.80;87.00
4215;DHT22;2121;48.062;7.850;2023-09-19T14:55:09;25.90;88.30
4215;DHT22;2121;48.062;7.850;2023-09-19T14:57:41;25.90;86.80
4215;DHT22;2121;48.062;7.850;2023-09-19T15:00:11;25.90;86.60
4215;DHT22;2121;48.062;7.850;2023-09-19T15:02:39;27.30;85.20
4215;DHT22;2121;48.062;7.850;2023-09-19T15:05:06;29.40;84.80
4215;DHT22;2121;48.062;7.850;2023-09-19T15:07:36;31.30;80.80
4215;DHT22;2121;48.062;7.850;2023-09-19T15:10:04;32.90;80.00
4215;DHT22;2121;48.062;7.850;2023-09-19T15:12:32;34.30;75.40
4215;DHT22;2121;48.062;7.850;2023-09-19T15:14:58;32.40;73.60
4215;DHT22;2121;48.062;7.850;2023-09-19T15:17:24;32.30;73.60
4215;DHT22;2121;48.062;7.850;2023-09-19T15:19:50;33.70;73.40
4215;DHT22;2121;48.062;7.850;2023-09-19T15:22:17;34.70;71.90
4215;DHT22;2121;48.062;7.850;2023-09-19T15:24:42;33.90;71.40
4215;DHT22;2121;48.062;7.850;2023-09-19T15:27:08;33.90;70.70
4215;DHT22;2121;48.062;7.850;2023-09-19T15:29:34;33.80;70.20
4215;DHT22;2121;48.062;7.850;2023-09-19T15:31:59;33.20;71.20
4215;DHT22;2121;48.062;7.850;2023-09-19T15:34:28;33.10;71.60
4215;DHT22;2121;48.062;7.850;2023-09-19T15:36:55;32.20;71.20
4215;DHT22;2121;48.062;7.850;2023-09-19T15:39:20;32.40;71.30
4215;DHT22;2121;48.062;7.850;2023-09-19T15:41:48;32.70;71.50
4215;DHT22;2121;48.062;7.850;2023-09-19T15:44:18;33.50;70.90
4215;DHT22;2121;48.062;7.850;2023-09-19T15:46:44;34.60;70.70
4215;DHT22;2121;48.062;7.850;2023-09-19T15:49:11;34.60;69.80
4215;DHT22;2121;48.062;7.850;2023-09-19T15:51:37;35.40;68.00
4215;DHT22;2121;48.062;7.850;2023-09-19T15:54:14;33.60;68.80
4215;DHT22;2121;48.062;7.850;2023-09-19T15:56:41;33.00;69.20
4215;DHT22;2121;48.062;7.850;2023-09-19T15:59:10;33.30;70.70
4215;DHT22;2121;48.062;7.850;2023-09-19T16:01:41;33.10;70.40
4215;DHT22;2121;48.062;7.850;2023-09-19T16:04:08;32.60;71.10
4215;DHT22;2121;48.062;7.850;2023-09-19T16:06:36;31.90;71.60
4215;DHT22;2121;48.062;7.850;2023-09-19T16:09:03;32.10;70.00
4215;DHT22;2121;48.062;7.850;2023-09-19T16:11:31;31.70;71.90
4215;DHT22;2121;48.062;7.850;2023-09-19T16:13:58;31.50;71.90
4215;DHT22;2121;48.062;7.850;2023-09-19T16:16:25;32.20;70.90
4215;DHT22;2121;48.062;7.850;2023-09-19T16:18:56;31.60;71.40
4215;DHT22;2121;48.062;7.850;2023-09-19T16:21:27;31.60;71.80
4215;DHT22;2121;48.062;7.850;2023-09-19T16:23:54;31.40;71.30
4215;DHT22;2121;48.062;7.850;2023-09-19T16:26:22;30.80;73.00
4215;DHT22;2121;48.062;7.850;2023-09-19T16:28:50;30.10;73.40
4215;DHT22;2121;48.062;7.850;2023-09-19T16:31:18;30.50;73.80
4215;DHT22;2121;48.062;7.850;2023-09-19T16:33:45;31.30;73.50
4215;DHT22;2121;48.062;7.850;2023-09-19T16:36:16;31.80;72.70
4215;DHT22;2121;48.062;7.850;2023-09-19T16:38:44;32.30;73.00
4215;DHT22;2121;48.062;7.850;2023-09-19T16:41:11;31.90;72.80
4215;DHT22;2121;48.062;7.850;2023-09-19T16:43:38;31.40;72.80
4215;DHT22;2121;48.062;7.850;2023-09-19T16:46:05;31.50;73.50
4215;DHT22;2121;48.062;7.850;2023-09-19T16:48:35;31.80;73.20
4215;DHT22;2121;48.062;7.850;2023-09-19T16:51:02;31.30;72.30
4215;DHT22;2121;48.062;7.850;2023-09-19T16:53:32;30.30;74.20
4215;DHT22;2121;48.062;7.850;2023-09-19T16:56:13;30.00;74.70
4215;DHT22;2121;48.062;7.850;2023-09-19T16:58:41;29.90;74.90
4215;DHT22;2121;48.062;7.850;2023-09-19T17:01:12;28.80;76.50
4215;DHT22;2121;48.062;7.850;2023-09-19T17:03:43;27.00;78.40
4215;DHT22;2121;48.062;7.850;2023-09-19T17:06:10;25.60;81.20
4215;DHT22;2121;48.062;7.850;2023-09-19T17:08:38;24.60;82.90
4215;DHT22;2121;48.062;7.850;2023-09-19T17:11:06;23.90;85.00